| time (UTC) | temp F | wind direction | speed knots | gust knots | rain 1hr in | rain 24hr in | rain mn in | humidity % | barometer mb |
| 20260906234551 | 91 | 149 | 5.2 | 11.3 | 0.00 | 0.04 | 0.04 | 51 | 1015.0 |
| 20260906234051 | 91 | 126 | 7.0 | 11.3 | 0.00 | 0.04 | 0.04 | 50 | 1015.0 |
| 20260906233551 | 92 | 195 | 5.2 | 11.3 | 0.00 | 0.04 | 0.04 | 50 | 1014.8 |
| 20260906233051 | 92 | 191 | 6.1 | 9.6 | 0.00 | 0.04 | 0.04 | 51 | 1014.9 |
| 20260906232551 | 92 | 169 | 7.8 | 12.2 | 0.00 | 0.04 | 0.04 | 50 | 1015.0 |
| 20260906232051 | 93 | 164 | 6.1 | 12.2 | 0.00 | 0.04 | 0.04 | 50 | 1014.9 |
| 20260906231551 | 93 | 171 | 4.3 | 12.2 | 0.00 | 0.04 | 0.04 | 49 | 1015.0 |
| 20260906231051 | 93 | 157 | 5.2 | 12.2 | 0.00 | 0.04 | 0.04 | 50 | 1015.0 |
| 20260906230551 | 92 | 244 | 5.2 | 12.2 | 0.00 | 0.04 | 0.04 | 52 | 1015.1 |
| 20260906230051 | 92 | 178 | 4.3 | 13.0 | 0.00 | 0.04 | 0.04 | 53 | 1014.9 |
| 20260906225551 | 91 | 192 | 4.3 | 13.0 | 0.00 | 0.04 | 0.04 | 55 | 1015.0 |
| 20260906225317 | 91 | 190 | 5.2 | 11.3 | 0.00 | 0.04 | 0.04 | 54 | 1015.0 |
| 20260906224550 | 90 | 165 | 4.3 | 11.3 | 0.00 | 0.04 | 0.04 | 57 | 1015.1 |
| 20260906223551 | 89 | 157 | 5.2 | 13.0 | 0.00 | 0.04 | 0.04 | 57 | 1015.3 |
| 20260906223051 | 90 | 153 | 7.0 | 8.7 | 0.00 | 0.04 | 0.04 | 55 | 1015.5 |
| 20260906222551 | 91 | 155 | 5.2 | 12.2 | 0.00 | 0.04 | 0.04 | 54 | 1015.4 |
| 20260906222051 | 92 | 161 | 2.6 | 12.2 | 0.00 | 0.04 | 0.04 | 53 | 1015.5 |
| 20260906221819 | 93 | 163 | 5.2 | 11.3 | 0.00 | 0.04 | 0.04 | 52 | 1015.5 |
| 20260906221050 | 92 | 115 | 6.1 | 12.2 | 0.00 | 0.04 | 0.04 | 54 | 1015.6 |
| 20260906220550 | 90 | 128 | 6.1 | 12.2 | 0.00 | 0.04 | 0.04 | 56 | 1015.5 |
| 20260906220050 | 90 | 104 | 5.2 | 12.2 | 0.00 | 0.04 | 0.04 | 56 | 1015.7 |
| 20260906215551 | 90 | 99 | 4.3 | 9.6 | 0.00 | 0.04 | 0.04 | 54 | 1015.5 |
| 20260906215051 | 91 | 162 | 5.2 | 13.0 | 0.00 | 0.04 | 0.04 | 53 | 1015.6 |
| 20260906214555 | 91 | 134 | 5.2 | 13.0 | 0.00 | 0.04 | 0.04 | 53 | 1015.6 |
| 20260906214050 | 91 | 128 | 5.2 | 11.3 | 0.00 | 0.04 | 0.04 | 53 | 1015.5 |
| 20260906213550 | 92 | 145 | 6.1 | 9.6 | 0.00 | 0.04 | 0.04 | 52 | 1015.6 |
| 20260906213314 | 92 | 154 | 4.3 | 9.6 | 0.00 | 0.04 | 0.04 | 52 | 1015.8 |
| 20260906212553 | 92 | 109 | 1.7 | 7.8 | 0.00 | 0.04 | 0.04 | 53 | 1015.8 |
| 20260906212051 | 91 | 164 | 5.2 | 7.8 | 0.00 | 0.04 | 0.04 | 55 | 1016.0 |
| 20260906211550 | 90 | 164 | 0.9 | 7.8 | 0.00 | 0.04 | 0.04 | 56 | 1016.0 |
| 20260906211051 | 88 | 122 | 3.5 | 7.8 | 0.00 | 0.04 | 0.04 | 58 | 1016.1 |
| 20260906210550 | 87 | 142 | 3.5 | 7.0 | 0.00 | 0.04 | 0.04 | 60 | 1016.2 |
| 20260906210312 | 87 | 92 | 3.5 | 7.0 | 0.00 | 0.04 | 0.04 | 60 | 1016.2 |
| 20260906205551 | 87 | 112 | 5.2 | 7.8 | 0.00 | 0.04 | 0.04 | 64 | 1016.6 |
| 20260906205051 | 86 | 101 | 2.6 | 7.8 | 0.00 | 0.04 | 0.04 | 63 | 1016.5 |
| 20260906204813 | 86 | 114 | 1.7 | 5.2 | 0.00 | 0.04 | 0.04 | 66 | 1016.5 |
| 20260906204050 | 86 | 146 | 3.5 | 6.1 | 0.00 | 0.04 | 0.04 | 67 | 1016.3 |
| 20260906203551 | 85 | 97 | 1.7 | 6.1 | 0.00 | 0.04 | 0.04 | 66 | 1016.7 |
| 20260906203051 | 85 | 79 | 2.6 | 5.2 | 0.00 | 0.04 | 0.04 | 68 | 1016.7 |
| 20260906202551 | 85 | 102 | 3.5 | 5.2 | 0.00 | 0.04 | 0.04 | 72 | 1016.8 |
| 20260906202051 | 85 | 92 | 1.7 | 3.5 | 0.00 | 0.04 | 0.04 | 71 | 1016.7 |
| 20260906201550 | 84 | 94 | 1.7 | 2.6 | 0.00 | 0.04 | 0.04 | 72 | 1016.8 |
| 20260906201051 | 83 | 95 | 1.7 | 3.5 | 0.00 | 0.04 | 0.04 | 75 | 1016.8 |
| 20260906200551 | 82 | 110 | 0.0 | 3.5 | 0.00 | 0.04 | 0.04 | 76 | 1017.1 |
| 20260906200051 | 82 | 105 | 1.7 | 5.2 | 0.00 | 0.04 | 0.04 | 80 | 1016.9 |
| 20260906195551 | 81 | 95 | 3.5 | 5.2 | 0.00 | 0.04 | 0.04 | 82 | 1017.1 |
| 20260906195051 | 81 | 89 | 2.6 | 5.2 | 0.01 | 0.04 | 0.04 | 82 | 1017.1 |
| 20260906194550 | 81 | 134 | 3.5 | 5.2 | 0.02 | 0.04 | 0.04 | 83 | 1017.2 |
| 20260906194050 | 81 | 205 | 1.7 | 6.1 | 0.04 | 0.04 | 0.04 | 82 | 1017.1 |
| 20260906193818 | 80 | 210 | 1.7 | 6.1 | 0.04 | 0.04 | 0.04 | 85 | 1017.1 |
| 20260906193051 | 80 | 216 | 2.6 | 5.2 | 0.04 | 0.04 | 0.04 | 85 | 1017.3 |
| 20260906192807 | 79 | 245 | 2.6 | 6.1 | 0.04 | 0.04 | 0.04 | 84 | 1017.1 |
| 20260906192038 | 79 | 231 | 2.6 | 6.1 | 0.04 | 0.04 | 0.04 | 87 | 1017.3 |
| 20260906191539 | 78 | 215 | 3.5 | 6.1 | 0.04 | 0.04 | 0.04 | 88 | 1017.3 |
| 20260906191304 | 78 | 226 | 1.7 | 7.0 | 0.04 | 0.04 | 0.04 | 88 | 1017.3 |
| 20260906190539 | 78 | 255 | 3.5 | 7.0 | 0.04 | 0.04 | 0.04 | 87 | 1017.3 |
| 20260906190039 | 78 | 261 | 1.7 | 5.2 | 0.04 | 0.04 | 0.04 | 86 | 1017.8 |
| 20260906185539 | 78 | 229 | 2.6 | 2.6 | 0.04 | 0.04 | 0.04 | 85 | 1017.6 |
| 20260906185039 | 78 | 207 | 0.9 | 2.6 | 0.03 | 0.03 | 0.03 | 83 | 1017.7 |
| 20260906184539 | 78 | 185 | 1.7 | 5.2 | 0.02 | 0.02 | 0.02 | 83 | 1018.0 |
| 20260906184039 | 78 | 165 | 1.7 | 7.0 | 0.00 | 0.00 | 0.01 | 81 | 1017.9 |
| 20260906183756 | 79 | 130 | 2.6 | 9.6 | 0.00 | 0.00 | 0.00 | 80 | 1017.9 |
| 20260906183039 | 80 | 135 | 6.1 | 13.0 | 0.00 | 0.00 | 0.00 | 77 | 1017.8 |
| 20260906182757 | 82 | 167 | 7.0 | 13.0 | 0.00 | 0.00 | 0.00 | 68 | 1017.9 |
| 20260906182038 | 83 | 182 | 6.1 | 13.0 | 0.00 | 0.00 | 0.00 | 65 | 1018.0 |
| 20260906181538 | 85 | 164 | 7.8 | 12.2 | 0.00 | 0.00 | 0.00 | 62 | 1018.0 |
| 20260906181038 | 87 | 149 | 6.1 | 8.7 | 0.00 | 0.00 | 0.00 | 59 | 1017.8 |
| 20260906180540 | 89 | 122 | 3.5 | 8.7 | 0.00 | 0.00 | 0.00 | 54 | 1017.9 |
| 20260906180039 | 92 | 128 | 3.5 | 8.7 | 0.00 | 0.00 | 0.00 | 51 | 1018.0 |
| 20260906175539 | 92 | 18 | 3.5 | 7.8 | 0.00 | 0.00 | 0.00 | 52 | 1018.0 |
| 20260906174748 | 91 | 49 | 4.3 | 7.8 | 0.00 | 0.00 | 0.00 | 54 | 1017.8 |
| 20260906174026 | 91 | 40 | 1.7 | 7.8 | 0.00 | 0.00 | 0.00 | 54 | 1018.2 |
| 20260906173527 | 90 | 45 | 2.6 | 7.8 | 0.00 | 0.00 | 0.00 | 53 | 1018.1 |
| 20260906173245 | 91 | 96 | 2.6 | 7.8 | 0.00 | 0.00 | 0.00 | 52 | 1018.1 |
| 20260906172527 | 91 | 71 | 2.6 | 7.8 | 0.00 | 0.00 | 0.00 | 52 | 1018.2 |
| 20260906172028 | 91 | 44 | 3.5 | 7.8 | 0.00 | 0.00 | 0.00 | 53 | 1018.2 |
| 20260906171751 | 91 | 68 | 6.1 | 8.7 | 0.00 | 0.00 | 0.00 | 54 | 1018.1 |
| 20260906171026 | 90 | 46 | 5.2 | 8.7 | 0.00 | 0.00 | 0.00 | 55 | 1018.4 |
| 20260906170526 | 91 | 4 | 4.3 | 8.7 | 0.00 | 0.00 | 0.00 | 54 | 1018.2 |
| 20260906170249 | 91 | 47 | 3.5 | 7.0 | 0.00 | 0.00 | 0.00 | 54 | 1018.5 |
| 20260906165527 | 92 | 326 | 3.5 | 9.6 | 0.00 | 0.00 | 0.00 | 53 | 1018.4 |
| 20260906165027 | 92 | 346 | 1.7 | 9.6 | 0.00 | 0.00 | 0.00 | 53 | 1018.4 |
| 20260906164515 | 92 | 12 | 1.7 | 7.8 | 0.00 | 0.00 | 0.00 | 52 | 1018.4 |
| 20260906163733 | 92 | 126 | 2.6 | 6.1 | 0.00 | 0.00 | 0.00 | 49 | 1018.6 |
| 20260906163015 | 92 | 40 | 0.9 | 6.1 | 0.00 | 0.00 | 0.00 | 48 | 1018.4 |
| 20260906162515 | 92 | 185 | 0.9 | 5.2 | 0.00 | 0.00 | 0.00 | 52 | 1018.6 |
| 20260906162015 | 92 | 164 | 1.7 | 5.2 | 0.00 | 0.00 | 0.00 | 50 | 1018.2 |
| 20260906161515 | 93 | 147 | 1.7 | 6.1 | 0.00 | 0.00 | 0.00 | 48 | 1018.6 |
| 20260906161015 | 91 | 87 | 2.6 | 6.1 | 0.00 | 0.00 | 0.00 | 51 | 1018.6 |
| 20260906160514 | 92 | 119 | 1.7 | 6.1 | 0.00 | 0.00 | 0.00 | 53 | 1018.5 |
| 20260906160014 | 90 | 317 | 1.7 | 5.2 | 0.00 | 0.00 | 0.00 | 54 | 1018.5 |
| 20260906155514 | 92 | 98 | 0.0 | 5.2 | 0.00 | 0.00 | 0.00 | 51 | 1018.4 |
| 20260906155014 | 92 | 119 | 1.7 | 3.5 | 0.00 | 0.00 | 0.00 | 52 | 1018.1 |
| 20260906154514 | 90 | 125 | 0.0 | 7.0 | 0.00 | 0.00 | 0.00 | 56 | 1018.1 |
| 20260906154014 | 89 | 101 | 1.7 | 7.0 | 0.00 | 0.00 | 0.00 | 56 | 1018.2 |
| 20260906153515 | 88 | 151 | 3.5 | 6.1 | 0.00 | 0.00 | 0.00 | 58 | 1018.1 |
| 20260906153015 | 88 | 156 | 0.9 | 7.8 | 0.00 | 0.00 | 0.00 | 59 | 1018.2 |
| 20260906152515 | 87 | 153 | 4.3 | 9.6 | 0.00 | 0.00 | 0.00 | 59 | 1018.1 |
| 20260906152009 | 87 | 152 | 5.2 | 9.6 | 0.00 | 0.00 | 0.00 | 59 | 1018.1 |
| 20260906151724 | 88 | 124 | 3.5 | 9.6 | 0.00 | 0.00 | 0.00 | 58 | 1017.9 |
| 20260906151002 | 88 | 176 | 4.3 | 9.6 | 0.00 | 0.00 | 0.00 | 58 | 1017.8 |
| 20260906150502 | 87 | 161 | 0.9 | 9.6 | 0.00 | 0.00 | 0.00 | 59 | 1017.9 |
| 20260906150002 | 87 | 215 | 4.3 | 8.7 | 0.00 | 0.00 | 0.00 | 60 | 1017.8 |
| 20260906145502 | 86 | 116 | 5.2 | 8.7 | 0.00 | 0.00 | 0.00 | 61 | 1017.7 |
| 20260906145002 | 85 | 159 | 2.6 | 7.8 | 0.00 | 0.00 | 0.00 | 63 | 1017.8 |
| 20260906144503 | 84 | 165 | 3.5 | 7.8 | 0.00 | 0.00 | 0.00 | 64 | 1017.7 |
| 20260906144003 | 83 | 166 | 2.6 | 11.3 | 0.00 | 0.00 | 0.00 | 67 | 1017.7 |
| 20260906143734 | 82 | 153 | 3.5 | 11.3 | 0.00 | 0.00 | 0.00 | 69 | 1017.7 |
| 20260906143002 | 80 | 171 | 6.1 | 8.7 | 0.00 | 0.00 | 0.00 | 74 | 1017.7 |
| 20260906142502 | 79 | 249 | 1.7 | 1.7 | 0.00 | 0.00 | 0.00 | 77 | 1017.9 |
| 20260906142002 | 78 | 101 | 0.9 | 2.6 | 0.00 | 0.00 | 0.00 | 78 | 1017.7 |
| 20260906141503 | 78 | 85 | 0.9 | 2.6 | 0.00 | 0.00 | 0.00 | 79 | 1017.7 |
| 20260906141002 | 77 | 89 | 0.0 | 1.7 | 0.00 | 0.00 | 0.00 | 79 | 1017.7 |
| 20260906140502 | 77 | 93 | 0.9 | 2.6 | 0.00 | 0.00 | 0.00 | 79 | 1017.9 |
| 20260906140002 | 77 | 90 | 1.7 | 2.6 | 0.00 | 0.00 | 0.00 | 79 | 1017.7 |
| 20260906135502 | 77 | 97 | 0.9 | 1.7 | 0.00 | 0.00 | 0.00 | 79 | 1017.7 |
| 20260906135002 | 77 | 98 | 1.7 | 1.7 | 0.00 | 0.00 | 0.00 | 80 | 1017.4 |
| 20260906134730 | 77 | 10 | 0.0 | 1.7 | 0.00 | 0.00 | 0.00 | 80 | 1017.6 |
| 20260906134222 | 76 | 9 | 0.9 | 0.9 | 0.00 | 0.00 | 0.00 | 81 | 1017.5 |
| 20260906133722 | 76 | 8 | 0.0 | 0.0 | 0.00 | 0.00 | 0.00 | 81 | 1017.3 |
| 20260906133002 | 76 | 8 | 0.0 | 0.0 | 0.00 | 0.00 | 0.00 | 81 | 1017.3 |
| 20260906132456 | 76 | 8 | 0.0 | 0.0 | 0.00 | 0.00 | 0.00 | 81 | 1017.2 |
| 20260906131951 | 76 | 8 | 0.0 | 0.9 | 0.00 | 0.00 | 0.00 | 81 | 1017.0 |
| 20260906131451 | 76 | 8 | 0.0 | 1.7 | 0.00 | 0.00 | 0.00 | 82 | 1017.3 |
| 20260906130951 | 76 | 8 | 0.0 | 1.7 | 0.00 | 0.00 | 0.00 | 83 | 1017.0 |
| 20260906130710 | 75 | 210 | 0.9 | 0.9 | 0.00 | 0.00 | 0.00 | 83 | 1017.0 |
| 20260906125950 | 75 | 208 | 0.0 | 1.7 | 0.00 | 0.00 | 0.00 | 84 | 1016.8 |
| 20260906125450 | 74 | 208 | 0.0 | 1.7 | 0.00 | 0.00 | 0.00 | 85 | 1016.8 |
| 20260906125202 | 74 | 335 | 0.9 | 1.7 | 0.00 | 0.00 | 0.00 | 85 | 1016.9 |
| 20260906124426 | 73 | 336 | 0.9 | 2.6 | 0.00 | 0.00 | 0.00 | 85 | 1016.5 |
| 20260906123927 | 73 | 336 | 0.9 | 2.6 | 0.00 | 0.00 | 0.00 | 84 | 1016.6 |
| 20260906123427 | 73 | 3 | 1.7 | 2.6 | 0.00 | 0.00 | 0.00 | 84 | 1016.2 |
| 20260906122927 | 73 | 339 | 1.7 | 1.7 | 0.00 | 0.00 | 0.00 | 85 | 1016.2 |
| 20260906122427 | 72 | 339 | 0.9 | 3.5 | 0.00 | 0.00 | 0.00 | 83 | 1016.3 |
| 20260906122147 | 72 | 347 | 1.7 | 3.5 | 0.00 | 0.00 | 0.00 | 83 | 1016.3 |
| 20260906121426 | 73 | 318 | 1.7 | 3.5 | 0.00 | 0.00 | 0.00 | 83 | 1016.1 |
| 20260906120926 | 73 | 317 | 0.9 | 2.6 | 0.00 | 0.00 | 0.00 | 82 | 1016.3 |
| 20260906120426 | 73 | 316 | 0.9 | 3.5 | 0.00 | 0.00 | 0.00 | 82 | 1016.1 |
| 20260906115926 | 73 | 328 | 2.6 | 3.5 | 0.00 | 0.00 | 0.00 | 82 | 1015.9 |
| 20260906115426 | 73 | 339 | 1.7 | 2.6 | 0.00 | 0.00 | 0.00 | 82 | 1015.9 |
| 20260906114927 | 74 | 235 | 0.9 | 2.6 | 0.00 | 0.00 | 0.00 | 81 | 1016.0 |
| 20260906114649 | 74 | 339 | 0.0 | 3.5 | 0.00 | 0.00 | 0.00 | 81 | 1015.8 |
| 20260906113926 | 74 | 339 | 0.9 | 3.5 | 0.00 | 0.00 | 0.00 | 81 | 1015.8 |
| 20260906113426 | 75 | 14 | 0.9 | 5.2 | 0.00 | 0.00 | 0.00 | 81 | 1015.9 |
| 20260906112926 | 75 | 318 | 0.9 | 7.8 | 0.00 | 0.00 | 0.00 | 82 | 1015.8 |
| 20260906112639 | 75 | 188 | 3.5 | 9.6 | 0.00 | 0.00 | 0.00 | 82 | 1015.7 |
| 20260906111915 | 74 | 220 | 5.2 | 9.6 | 0.00 | 0.00 | 0.00 | 82 | 1015.8 |
| 20260906111415 | 74 | 185 | 6.1 | 9.6 | 0.00 | 0.00 | 0.00 | 82 | 1015.4 |
| 20260906110915 | 74 | 214 | 5.2 | 9.6 | 0.00 | 0.00 | 0.00 | 82 | 1015.5 |
| 20260906110408 | 74 | 220 | 5.2 | 8.7 | 0.00 | 0.00 | 0.00 | 81 | 1015.4 |
| 20260906105902 | 74 | 217 | 6.1 | 9.6 | 0.00 | 0.00 | 0.00 | 82 | 1015.3 |
| 20260906105403 | 74 | 206 | 7.0 | 9.6 | 0.00 | 0.00 | 0.00 | 81 | 1015.3 |
| 20260906104902 | 74 | 221 | 5.2 | 7.8 | 0.00 | 0.00 | 0.00 | 81 | 1015.2 |
| 20260906104403 | 74 | 208 | 4.3 | 7.8 | 0.00 | 0.00 | 0.00 | 81 | 1015.2 |
| 20260906103903 | 74 | 213 | 5.2 | 7.8 | 0.00 | 0.00 | 0.00 | 81 | 1015.3 |
| 20260906103626 | 74 | 194 | 3.5 | 7.8 | 0.00 | 0.00 | 0.00 | 81 | 1015.3 |
| 20260906102903 | 74 | 186 | 4.3 | 7.8 | 0.00 | 0.00 | 0.00 | 81 | 1015.2 |
| 20260906102402 | 74 | 154 | 4.3 | 8.7 | 0.00 | 0.00 | 0.00 | 80 | 1015.0 |
| 20260906101902 | 74 | 195 | 4.3 | 8.7 | 0.00 | 0.00 | 0.00 | 80 | 1015.0 |
| 20260906101403 | 74 | 214 | 5.2 | 11.3 | 0.00 | 0.00 | 0.00 | 80 | 1014.9 |
| 20260906101123 | 74 | 199 | 5.2 | 11.3 | 0.00 | 0.00 | 0.00 | 80 | 1015.0 |
| 20260906100403 | 74 | 181 | 5.2 | 9.6 | 0.00 | 0.00 | 0.00 | 79 | 1015.1 |
| 20260906095902 | 74 | 212 | 5.2 | 11.3 | 0.00 | 0.00 | 0.00 | 79 | 1015.0 |
| 20260906095404 | 75 | 194 | 4.3 | 11.3 | 0.00 | 0.00 | 0.00 | 79 | 1015.1 |
| 20260906095123 | 75 | 216 | 5.2 | 11.3 | 0.00 | 0.00 | 0.00 | 79 | 1015.3 |
| 20260906094403 | 75 | 217 | 7.0 | 11.3 | 0.00 | 0.00 | 0.00 | 79 | 1015.2 |
| 20260906093902 | 75 | 212 | 5.2 | 12.2 | 0.00 | 0.00 | 0.00 | 78 | 1015.3 |
| 20260906093628 | 75 | 198 | 6.1 | 12.2 | 0.00 | 0.00 | 0.00 | 78 | 1015.1 |
| 20260906092903 | 75 | 199 | 3.5 | 11.3 | 0.00 | 0.00 | 0.00 | 78 | 1015.4 |
| 20260906092402 | 75 | 180 | 8.7 | 11.3 | 0.00 | 0.00 | 0.00 | 78 | 1015.3 |
| 20260906092119 | 75 | 161 | 5.2 | 11.3 | 0.00 | 0.00 | 0.00 | 78 | 1015.3 |
| 20260906091403 | 75 | 190 | 7.0 | 11.3 | 0.00 | 0.00 | 0.00 | 78 | 1015.3 |
| 20260906091126 | 75 | 163 | 4.3 | 12.2 | 0.00 | 0.00 | 0.00 | 77 | 1015.4 |
| 20260906090626 | 75 | 179 | 7.0 | 12.2 | 0.00 | 0.00 | 0.00 | 77 | 1015.3 |
| 20260906085902 | 75 | 156 | 5.2 | 11.3 | 0.00 | 0.00 | 0.00 | 77 | 1015.1 |
| 20260906085402 | 76 | 183 | 7.0 | 13.0 | 0.00 | 0.00 | 0.00 | 76 | 1015.1 |
| 20260906084902 | 76 | 136 | 7.8 | 16.5 | 0.00 | 0.00 | 0.00 | 76 | 1015.1 |
| 20260906084623 | 76 | 187 | 6.1 | 16.5 | 0.00 | 0.00 | 0.00 | 76 | 1015.2 |
| 20260906083903 | 76 | 172 | 6.1 | 13.9 | 0.00 | 0.00 | 0.00 | 76 | 1015.2 |
| 20260906083345 | 76 | 175 | 8.7 | 13.9 | 0.00 | 0.00 | 0.00 | 76 | 1015.2 |
| 20260906082838 | 76 | 166 | 7.8 | 14.8 | 0.00 | 0.00 | 0.00 | 76 | 1015.3 |
| 20260906082339 | 76 | 164 | 9.6 | 14.8 | 0.00 | 0.00 | 0.00 | 75 | 1015.3 |
| 20260906081839 | 76 | 170 | 12.2 | 14.8 | 0.00 | 0.00 | 0.00 | 75 | 1015.1 |
| 20260906081339 | 76 | 157 | 10.4 | 13.9 | 0.00 | 0.00 | 0.00 | 76 | 1015.6 |
| 20260906080839 | 76 | 191 | 8.7 | 13.9 | 0.00 | 0.00 | 0.00 | 77 | 1015.3 |
| 20260906080339 | 76 | 167 | 7.0 | 13.9 | 0.00 | 0.00 | 0.00 | 78 | 1015.5 |
| 20260906075833 | 76 | 178 | 7.8 | 13.0 | 0.00 | 0.00 | 0.00 | 78 | 1015.7 |
| 20260906075554 | 76 | 180 | 6.1 | 13.0 | 0.00 | 0.00 | 0.00 | 78 | 1015.7 |
| 20260906074826 | 76 | 157 | 7.0 | 11.3 | 0.00 | 0.00 | 0.00 | 78 | 1015.8 |
| 20260906074326 | 76 | 194 | 7.0 | 9.6 | 0.00 | 0.00 | 0.00 | 77 | 1015.6 |
| 20260906074051 | 77 | 152 | 6.1 | 9.6 | 0.00 | 0.00 | 0.00 | 77 | 1015.8 |
| 20260906073327 | 77 | 182 | 5.2 | 9.6 | 0.00 | 0.00 | 0.00 | 76 | 1015.8 |
| 20260906072827 | 77 | 157 | 5.2 | 11.3 | 0.00 | 0.00 | 0.00 | 76 | 1015.8 |
| 20260906072320 | 77 | 175 | 7.0 | 11.3 | 0.00 | 0.00 | 0.00 | 76 | 1015.7 |
| 20260906071815 | 78 | 160 | 7.0 | 11.3 | 0.00 | 0.00 | 0.00 | 75 | 1016.0 |
| 20260906071315 | 78 | 171 | 7.8 | 11.3 | 0.00 | 0.00 | 0.00 | 75 | 1016.1 |
| 20260906070815 | 78 | 175 | 7.0 | 12.2 | 0.00 | 0.00 | 0.00 | 75 | 1016.0 |
| 20260906070315 | 78 | 179 | 7.8 | 13.0 | 0.00 | 0.00 | 0.00 | 75 | 1015.8 |
| 20260906065814 | 78 | 166 | 7.8 | 13.0 | 0.00 | 0.00 | 0.00 | 74 | 1016.0 |
| 20260906065536 | 78 | 135 | 5.2 | 11.3 | 0.00 | 0.00 | 0.00 | 74 | 1015.9 |
| 20260906064314 | 78 | 162 | 7.0 | 13.0 | 0.00 | 0.00 | 0.00 | 74 | 1016.1 |
| 20260906063814 | 79 | 178 | 7.0 | 13.0 | 0.00 | 0.00 | 0.00 | 73 | 1016.1 |
| 20260906062815 | 79 | 175 | 7.0 | 16.5 | 0.00 | 0.00 | 0.00 | 73 | 1016.1 |
| 20260906062314 | 79 | 164 | 8.7 | 16.5 | 0.00 | 0.00 | 0.00 | 72 | 1016.5 |
| 20260906062042 | 79 | 166 | 6.1 | 13.9 | 0.00 | 0.00 | 0.00 | 72 | 1016.1 |
| 20260906061302 | 79 | 190 | 7.8 | 14.8 | 0.00 | 0.00 | 0.00 | 72 | 1016.2 |
| 20260906060802 | 80 | 160 | 8.7 | 14.8 | 0.00 | 0.00 | 0.00 | 72 | 1016.5 |
| 20260906060302 | 80 | 158 | 7.8 | 18.2 | 0.00 | 0.00 | 0.00 | 71 | 1016.2 |
| 20260906055802 | 80 | 173 | 6.1 | 18.2 | 0.00 | 0.00 | 0.00 | 71 | 1016.3 |
| 20260906055306 | 80 | 167 | 11.3 | 15.6 | 0.00 | 0.00 | 0.00 | 71 | 1016.1 |
| 20260906054802 | 80 | 163 | 7.8 | 15.6 | 0.00 | 0.00 | 0.00 | 71 | 1016.3 |
| 20260906054302 | 80 | 174 | 7.0 | 16.5 | 0.00 | 0.00 | 0.00 | 71 | 1016.1 |
| 20260906054023 | 80 | 156 | 11.3 | 18.2 | 0.00 | 0.00 | 0.00 | 71 | 1016.3 |
| 20260906053522 | 80 | 158 | 9.6 | 18.2 | 0.00 | 0.00 | 0.00 | 70 | 1016.5 |
| 20260906052802 | 80 | 169 | 6.1 | 16.5 | 0.00 | 0.00 | 0.00 | 70 | 1016.3 |
| 20260906052526 | 80 | 121 | 8.7 | 14.8 | 0.00 | 0.00 | 0.00 | 70 | 1016.3 |
| 20260906051803 | 80 | 154 | 5.2 | 14.8 | 0.00 | 0.00 | 0.00 | 70 | 1016.2 |
| 20260906051302 | 80 | 145 | 7.8 | 15.6 | 0.00 | 0.00 | 0.00 | 69 | 1016.2 |
| 20260906050802 | 81 | 145 | 7.8 | 15.6 | 0.00 | 0.00 | 0.00 | 69 | 1016.3 |
| 20260906050302 | 81 | 147 | 9.6 | 15.6 | 0.00 | 0.00 | 0.00 | 68 | 1016.6 |
| 20260906045803 | 81 | 156 | 8.7 | 19.1 | 0.00 | 0.00 | 0.00 | 68 | 1016.6 |
| 20260906045305 | 81 | 134 | 6.1 | 19.1 | 0.00 | 0.00 | 0.00 | 67 | 1016.5 |
| 20260906044803 | 81 | 145 | 7.8 | 15.6 | 0.00 | 0.00 | 0.00 | 66 | 1016.6 |
| 20260906044303 | 81 | 186 | 8.7 | 14.8 | 0.00 | 0.00 | 0.00 | 66 | 1016.6 |
| 20260906043803 | 81 | 160 | 7.8 | 15.6 | 0.00 | 0.00 | 0.00 | 66 | 1016.6 |
| 20260906043303 | 81 | 143 | 7.8 | 15.6 | 0.00 | 0.00 | 0.00 | 65 | 1016.5 |
| 20260906042803 | 81 | 145 | 8.7 | 15.6 | 0.00 | 0.00 | 0.00 | 65 | 1016.7 |
| 20260906042532 | 81 | 114 | 9.6 | 14.8 | 0.00 | 0.00 | 0.00 | 65 | 1016.6 |
| 20260906042023 | 81 | 150 | 6.1 | 14.8 | 0.00 | 0.00 | 0.00 | 64 | 1016.6 |
| 20260906041303 | 81 | 139 | 5.2 | 12.2 | 0.00 | 0.00 | 0.00 | 64 | 1016.5 |
| 20260906040803 | 82 | 134 | 5.2 | 12.2 | 0.00 | 0.00 | 0.00 | 63 | 1016.3 |
| 20260906040303 | 82 | 130 | 7.8 | 12.2 | 0.00 | 0.00 | 0.00 | 63 | 1016.3 |
| 20260906040028 | 82 | 123 | 7.0 | 12.2 | 0.00 | 0.00 | 0.00 | 62 | 1016.3 |
| 20260906035305 | 82 | 124 | 7.0 | 11.3 | 0.00 | 0.00 | 0.00 | 62 | 1016.1 |
| 20260906034803 | 82 | 126 | 5.2 | 11.3 | 0.00 | 0.00 | 0.00 | 61 | 1016.2 |
| 20260906034303 | 82 | 142 | 7.0 | 12.2 | 0.00 | 0.00 | 0.00 | 60 | 1016.2 |
| 20260906033803 | 82 | 121 | 5.2 | 12.2 | 0.00 | 0.00 | 0.00 | 60 | 1016.3 |
| 20260906033302 | 82 | 110 | 5.2 | 13.0 | 0.00 | 0.00 | 0.00 | 59 | 1016.0 |
| 20260906032802 | 81 | 121 | 6.1 | 13.0 | 0.00 | 0.00 | 0.00 | 59 | 1016.3 |
| 20260906032306 | 82 | 135 | 5.2 | 13.0 | 0.00 | 0.00 | 0.00 | 57 | 1016.1 |
| 20260906031803 | 82 | 128 | 7.8 | 13.9 | 0.00 | 0.00 | 0.00 | 55 | 1016.2 |
| 20260906031302 | 81 | 90 | 6.1 | 13.9 | 0.00 | 0.00 | 0.00 | 55 | 1016.2 |
| 20260906030803 | 81 | 123 | 5.2 | 7.0 | 0.00 | 0.00 | 0.00 | 55 | 1016.0 |
| 20260906030302 | 81 | 152 | 4.3 | 6.1 | 0.00 | 0.00 | 0.00 | 55 | 1015.7 |
| 20260906025802 | 81 | 164 | 3.5 | 6.1 | 0.00 | 0.00 | 0.00 | 55 | 1015.6 |
| 20260906025306 | 81 | 167 | 4.3 | 7.0 | 0.00 | 0.00 | 0.00 | 55 | 1015.5 |
| 20260906024802 | 81 | 172 | 4.3 | 7.0 | 0.00 | 0.00 | 0.00 | 56 | 1015.6 |
| 20260906024302 | 80 | 165 | 5.2 | 6.1 | 0.00 | 0.00 | 0.00 | 56 | 1015.4 |
| 20260906023802 | 80 | 169 | 4.3 | 6.1 | 0.00 | 0.00 | 0.00 | 56 | 1015.2 |
| 20260906023302 | 81 | 158 | 3.5 | 6.1 | 0.00 | 0.00 | 0.00 | 56 | 1015.3 |
| 20260906022803 | 81 | 167 | 3.5 | 6.1 | 0.00 | 0.00 | 0.00 | 56 | 1015.1 |
| 20260906022527 | 81 | 152 | 3.5 | 6.1 | 0.00 | 0.00 | 0.00 | 56 | 1014.8 |
| 20260906021802 | 81 | 142 | 3.5 | 6.1 | 0.00 | 0.00 | 0.00 | 56 | 1015.0 |
| 20260906021302 | 82 | 129 | 3.5 | 5.2 | 0.00 | 0.00 | 0.00 | 55 | 1014.9 |
| 20260906020802 | 82 | 135 | 3.5 | 5.2 | 0.00 | 0.00 | 0.00 | 55 | 1015.0 |
| 20260906020302 | 82 | 144 | 2.6 | 3.5 | 0.00 | 0.00 | 0.00 | 54 | 1015.0 |
| 20260906020026 | 82 | 147 | 2.6 | 3.5 | 0.00 | 0.00 | 0.00 | 54 | 1014.5 |
| 20260906015305 | 82 | 143 | 2.6 | 3.5 | 0.00 | 0.00 | 0.00 | 54 | 1014.9 |
| 20260906014803 | 83 | 146 | 2.6 | 5.2 | 0.00 | 0.00 | 0.00 | 54 | 1014.7 |
| 20260906014302 | 83 | 150 | 2.6 | 5.2 | 0.00 | 0.00 | 0.00 | 53 | 1014.7 |
| 20260906013802 | 84 | 137 | 3.5 | 5.2 | 0.00 | 0.00 | 0.00 | 53 | 1014.5 |
| 20260906013521 | 84 | 132 | 3.5 | 5.2 | 0.00 | 0.00 | 0.00 | 53 | 1014.8 |
| 20260906012803 | 84 | 129 | 3.5 | 5.2 | 0.00 | 0.00 | 0.00 | 52 | 1014.5 |
| 20260906012306 | 85 | 134 | 3.5 | 3.5 | 0.00 | 0.00 | 0.00 | 51 | 1014.7 |
| 20260906012027 | 85 | 126 | 2.6 | 5.2 | 0.00 | 0.00 | 0.00 | 51 | 1014.4 |
| 20260906011303 | 85 | 127 | 2.6 | 5.2 | 0.00 | 0.00 | 0.00 | 50 | 1014.4 |
| 20260906010803 | 86 | 141 | 2.6 | 6.1 | 0.00 | 0.00 | 0.00 | 49 | 1014.5 |
| 20260906010529 | 87 | 159 | 2.6 | 6.1 | 0.00 | 0.00 | 0.00 | 48 | 1014.9 |
| 20260906005802 | 87 | 142 | 3.5 | 7.8 | 0.00 | 0.00 | 0.00 | 48 | 1014.5 |
| 20260906005306 | 88 | 137 | 2.6 | 7.8 | 0.00 | 0.00 | 0.00 | 47 | 1014.5 |
| 20260906004802 | 88 | 129 | 6.1 | 8.7 | 0.00 | 0.00 | 0.00 | 47 | 1014.4 |
| 20260906004302 | 89 | 117 | 6.1 | 8.7 | 0.00 | 0.00 | 0.00 | 47 | 1014.3 |
| 20260906003802 | 89 | 136 | 5.2 | 11.3 | 0.00 | 0.00 | 0.00 | 46 | 1014.5 |
| 20260906003302 | 89 | 111 | 7.8 | 11.3 | 0.00 | 0.00 | 0.00 | 46 | 1014.4 |
| 20260906002802 | 90 | 145 | 6.1 | 11.3 | 0.00 | 0.00 | 0.00 | 45 | 1014.2 |
| 20260906002305 | 90 | 111 | 5.2 | 9.6 | 0.00 | 0.00 | 0.00 | 46 | 1014.3 |
| 20260906001802 | 90 | 128 | 4.3 | 9.6 | 0.00 | 0.00 | 0.00 | 46 | 1014.2 |
| 20260906001302 | 91 | 119 | 7.0 | 9.6 | 0.00 | 0.00 | 0.00 | 45 | 1014.2 |
| 20260906000802 | 91 | 111 | 5.2 | 9.6 | 0.00 | 0.00 | 0.00 | 45 | 1014.1 |
| 20260905235802 | 92 | 113 | 7.8 | 14.8 | 0.00 | 0.00 | 0.00 | 43 | 1014.3 |
| 20260905235306 | 94 | 91 | 7.0 | 14.8 | 0.00 | 0.00 | 0.00 | 42 | 1014.3 |